Time;durP1;ratioP1;P1;durP2;ratioP2;P2;SDS_P1;SDS_P2;PMS_P1;PMS_P2;Temp;Humidity;BMP_temperature;BMP_pressure;BME280_temperature;BME280_humidity;BME280_pressure;Samples;Min_cycle;Max_cycle;Signal;HPM_P1;HPM_P2
2021/12/15 00:00:44;;;;;;;;;;;21.20;49.00;;;;;;5073850;28;19939;-62
2021/12/15 00:03:10;;;;;;;;;;;21.30;48.90;;;;;;5077447;28;19913;-62
2021/12/15 00:05:35;;;;;;;;;;;21.20;48.90;;;;;;5074841;28;19919;-62
2021/12/15 00:08:02;;;;;;;;;;;21.20;48.70;;;;;;5072467;28;19943;-63
2021/12/15 00:10:27;;;;;;;;;;;21.20;48.80;;;;;;5060592;28;20502;-63
2021/12/15 00:12:53;;;;;;;;;;;21.10;48.90;;;;;;5074404;28;19920;-62
2021/12/15 00:15:18;;;;;;;;;;;21.10;49.00;;;;;;5075231;28;19928;-62
2021/12/15 00:17:44;;;;;;;;;;;21.10;48.80;;;;;;5076590;28;20386;-62
2021/12/15 00:20:10;;;;;;;;;;;21.10;48.60;;;;;;5071838;28;20359;-62
2021/12/15 00:22:36;;;;;;;;;;;21.20;48.40;;;;;;5074443;28;19970;-63
2021/12/15 00:25:03;;;;;;;;;;;21.20;48.30;;;;;;5077921;28;19928;-62
2021/12/15 00:27:29;;;;;;;;;;;21.20;48.30;;;;;;5072320;28;19916;-62
2021/12/15 00:29:54;;;;;;;;;;;21.20;47.90;;;;;;5072582;28;19923;-62
2021/12/15 00:32:20;;;;;;;;;;;21.30;47.90;;;;;;5077110;28;19947;-63
2021/12/15 00:34:45;;;;;;;;;;;21.30;48.00;;;;;;5072574;28;19913;-62
2021/12/15 00:37:11;;;;;;;;;;;21.40;47.90;;;;;;5074426;28;19911;-62
2021/12/15 00:39:36;;;;;;;;;;;21.40;47.90;;;;;;5074647;28;19924;-62
2021/12/15 00:42:02;;;;;;;;;;;21.40;47.90;;;;;;5075335;28;20695;-62
2021/12/15 00:44:27;;;;;;;;;;;21.40;48.00;;;;;;5073293;28;20020;-62
2021/12/15 00:46:53;;;;;;;;;;;21.40;47.90;;;;;;5073786;28;20015;-62
2021/12/15 00:49:19;;;;;;;;;;;21.30;47.80;;;;;;5076355;28;20304;-62
2021/12/15 00:51:45;;;;;;;;;;;21.30;47.90;;;;;;5075980;28;19927;-63
2021/12/15 00:54:10;;;;;;;;;;;21.30;47.90;;;;;;5069827;28;19941;-62
2021/12/15 00:56:36;;;;;;;;;;;21.20;48.00;;;;;;5072447;28;19919;-62
2021/12/15 00:59:02;;;;;;;;;;;21.30;47.90;;;;;;5071775;28;19916;-62
2021/12/15 01:01:28;;;;;;;;;;;21.20;47.90;;;;;;5072731;28;19925;-62
2021/12/15 01:03:53;;;;;;;;;;;21.20;47.90;;;;;;5071246;28;19916;-62
2021/12/15 01:06:21;;;;;;;;;;;21.20;47.90;;;;;;5076251;28;19913;-62
2021/12/15 01:08:48;;;;;;;;;;;21.20;48.00;;;;;;5073135;28;19916;-62
2021/12/15 01:11:25;;;;;;;;;;;21.20;48.10;;;;;;5074327;28;19916;-62
2021/12/15 01:19:48;;;;;;;;;;;21.20;48.00;;;;;;5072307;28;19962;-62
2021/12/15 01:22:14;;;;;;;;;;;21.20;48.10;;;;;;5073178;28;19913;-62
2021/12/15 01:24:39;;;;;;;;;;;21.10;48.10;;;;;;5072866;28;19919;-63
2021/12/15 01:27:05;;;;;;;;;;;21.10;48.20;;;;;;5072600;28;19913;-62
2021/12/15 01:29:30;;;;;;;;;;;21.00;48.10;;;;;;5085824;28;19970;-63
2021/12/15 01:31:56;;;;;;;;;;;21.00;48.20;;;;;;5072040;28;19938;-62
2021/12/15 01:34:21;;;;;;;;;;;21.00;48.30;;;;;;5071402;28;19912;-62
2021/12/15 01:36:47;;;;;;;;;;;21.00;48.20;;;;;;5076273;28;19959;-62
2021/12/15 01:39:12;;;;;;;;;;;21.00;48.30;;;;;;5075868;28;19912;-62
2021/12/15 01:41:38;;;;;;;;;;;21.00;48.20;;;;;;5072823;28;19923;-62
2021/12/15 01:49:16;;;;;;;;;;;20.90;48.30;;;;;;5071980;28;20425;-63
2021/12/15 01:51:42;;;;;;;;;;;20.90;48.30;;;;;;5074429;28;20285;-62
2021/12/15 01:54:08;;;;;;;;;;;20.90;48.30;;;;;;5071893;28;20003;-63
2021/12/15 01:56:33;;;;;;;;;;;20.90;48.30;;;;;;5070301;28;19916;-62
2021/12/15 01:58:59;;;;;;;;;;;20.90;48.40;;;;;;5070757;28;20382;-62
2021/12/15 02:01:24;;;;;;;;;;;20.90;48.40;;;;;;5070841;28;19952;-63
2021/12/15 02:03:50;;;;;;;;;;;20.90;48.50;;;;;;5086488;28;19917;-62
2021/12/15 02:06:15;;;;;;;;;;;20.80;48.50;;;;;;5074298;28;19974;-62
2021/12/15 02:08:42;;;;;;;;;;;20.80;48.50;;;;;;5072071;28;19948;-62
2021/12/15 02:11:07;;;;;;;;;;;20.80;48.50;;;;;;5073072;28;19916;-62
2021/12/15 02:13:33;;;;;;;;;;;20.80;48.50;;;;;;5075985;28;19928;-62
2021/12/15 02:15:59;;;;;;;;;;;20.80;48.50;;;;;;5080501;28;19919;-62
2021/12/15 02:18:27;;;;;;;;;;;20.90;48.80;;;;;;5077529;28;19970;-62
2021/12/15 02:21:12;;;;;;;;;;;20.90;48.80;;;;;;5074861;28;19974;-63
2021/12/15 02:23:42;;;;;;;;;;;21.00;48.60;;;;;;5075559;28;20012;-63
2021/12/15 02:26:17;;;;;;;;;;;21.20;48.40;;;;;;5072317;28;19920;-62
2021/12/15 02:28:46;;;;;;;;;;;21.40;48.00;;;;;;5078769;28;19920;-62
2021/12/15 02:31:57;;;;;;;;;;;21.60;47.70;;;;;;5078083;28;20313;-63
2021/12/15 02:34:18;;;;;;;;;;;21.80;47.30;;;;;;5071612;28;19931;-62
2021/12/15 02:39:48;;;;;;;;;;;22.30;46.70;;;;;;5023009;28;19928;-62
2021/12/15 02:42:13;;;;;;;;;;;22.50;46.50;;;;;;5019613;28;19913;-63
2021/12/15 02:44:43;;;;;;;;;;;22.60;46.10;;;;;;5047327;28;19916;-62
2021/12/15 02:47:09;;;;;;;;;;;22.70;45.80;;;;;;5075638;28;19920;-62
2021/12/15 02:49:35;;;;;;;;;;;22.80;45.60;;;;;;5075333;28;19916;-62
2021/12/15 02:52:00;;;;;;;;;;;22.90;45.50;;;;;;5077988;28;19955;-62
2021/12/15 02:54:26;;;;;;;;;;;22.90;45.40;;;;;;5077335;28;19938;-63
2021/12/15 02:56:53;;;;;;;;;;;23.00;45.30;;;;;;5075829;28;20332;-63
2021/12/15 02:59:23;;;;;;;;;;;23.00;45.20;;;;;;5077769;28;20050;-62
2021/12/15 03:07:01;;;;;;;;;;;23.00;45.70;;;;;;5077945;28;20015;-63
2021/12/15 03:17:39;;;;;;;;;;;22.90;45.30;;;;;;5074265;28;19957;-63
2021/12/15 03:20:05;;;;;;;;;;;22.80;45.30;;;;;;5074523;28;19920;-63
2021/12/15 03:22:30;;;;;;;;;;;22.90;45.50;;;;;;5088819;28;19954;-63
2021/12/15 03:24:56;;;;;;;;;;;22.80;45.50;;;;;;5066267;28;20344;-62
2021/12/15 03:33:13;;;;;;;;;;;22.80;45.60;;;;;;5072730;28;19920;-62
2021/12/15 03:35:47;;;;;;;;;;;22.70;45.70;;;;;;5072756;28;19931;-62
2021/12/15 03:38:13;;;;;;;;;;;22.70;45.80;;;;;;5081198;28;19916;-62
2021/12/15 03:40:41;;;;;;;;;;;22.70;45.90;;;;;;5072301;28;20368;-62
2021/12/15 03:43:11;;;;;;;;;;;22.70;45.80;;;;;;5074692;28;19912;-62
2021/12/15 03:45:38;;;;;;;;;;;22.70;45.80;;;;;;5071090;28;19917;-63
2021/12/15 03:48:05;;;;;;;;;;;22.70;45.80;;;;;;5075008;28;19931;-62
2021/12/15 03:50:30;;;;;;;;;;;22.70;45.80;;;;;;5078155;28;19923;-62
2021/12/15 03:52:56;;;;;;;;;;;22.70;45.80;;;;;;5078590;28;19912;-62
2021/12/15 03:55:22;;;;;;;;;;;22.70;45.70;;;;;;5074294;28;20300;-62
2021/12/15 03:57:48;;;;;;;;;;;22.70;45.70;;;;;;5072334;28;20012;-62
2021/12/15 04:00:14;;;;;;;;;;;22.80;45.80;;;;;;5076125;28;20396;-62
2021/12/15 04:02:39;;;;;;;;;;;22.80;45.70;;;;;;5070381;28;19916;-62
2021/12/15 04:05:05;;;;;;;;;;;22.80;45.60;;;;;;5075392;28;20304;-62
2021/12/15 04:07:30;;;;;;;;;;;22.80;45.60;;;;;;5073856;28;19928;-63
2021/12/15 04:09:56;;;;;;;;;;;22.80;45.60;;;;;;5075378;28;20394;-63
2021/12/15 04:12:22;;;;;;;;;;;22.90;45.60;;;;;;5076168;28;19919;-63
2021/12/15 04:14:55;;;;;;;;;;;22.90;45.60;;;;;;5072026;28;20373;-63
2021/12/15 04:17:30;;;;;;;;;;;22.90;45.50;;;;;;5080613;28;19920;-62
2021/12/15 04:20:03;;;;;;;;;;;22.90;45.50;;;;;;5072213;28;20023;-62
2021/12/15 04:22:29;;;;;;;;;;;22.90;45.50;;;;;;5078118;28;19912;-62
2021/12/15 04:24:55;;;;;;;;;;;22.90;45.50;;;;;;5074981;28;19916;-62
2021/12/15 04:27:21;;;;;;;;;;;22.90;45.40;;;;;;5071990;28;20015;-62
2021/12/15 04:29:47;;;;;;;;;;;22.90;45.40;;;;;;5073352;28;20343;-62
2021/12/15 04:32:23;;;;;;;;;;;22.90;45.50;;;;;;5073506;28;19967;-62
2021/12/15 04:34:49;;;;;;;;;;;22.80;45.50;;;;;;5072169;28;20062;-62
2021/12/15 04:37:14;;;;;;;;;;;22.70;45.70;;;;;;5074322;28;20405;-62
2021/12/15 04:39:39;;;;;;;;;;;22.60;45.80;;;;;;5075452;28;19916;-62
2021/12/15 04:42:05;;;;;;;;;;;22.50;46.10;;;;;;5074514;28;20253;-62
2021/12/15 04:44:31;;;;;;;;;;;22.40;46.40;;;;;;5078164;28;19913;-62
2021/12/15 04:47:04;;;;;;;;;;;22.30;46.30;;;;;;5073034;28;20419;-62
2021/12/15 04:49:31;;;;;;;;;;;22.30;46.40;;;;;;5061661;28;19912;-62
2021/12/15 04:51:57;;;;;;;;;;;22.30;46.30;;;;;;5071706;28;19927;-62
2021/12/15 04:54:22;;;;;;;;;;;22.40;46.40;;;;;;5072214;28;20300;-62
2021/12/15 04:56:48;;;;;;;;;;;22.40;46.40;;;;;;5088069;28;19913;-63
2021/12/15 04:59:14;;;;;;;;;;;22.50;46.30;;;;;;5083431;28;19934;-62
2021/12/15 05:01:39;;;;;;;;;;;22.50;46.10;;;;;;5071004;28;19916;-62
2021/12/15 05:04:05;;;;;;;;;;;22.60;46.00;;;;;;5068061;28;19924;-62
2021/12/15 05:06:30;;;;;;;;;;;22.70;46.00;;;;;;5072751;28;19912;-62
2021/12/15 05:08:55;;;;;;;;;;;22.70;45.90;;;;;;5087962;28;19913;-62
2021/12/15 05:11:21;;;;;;;;;;;22.70;45.70;;;;;;5073137;28;19913;-62
2021/12/15 05:13:46;;;;;;;;;;;22.80;45.80;;;;;;5075392;28;19930;-62
2021/12/15 05:16:12;;;;;;;;;;;22.80;45.70;;;;;;5061266;28;20073;-62
2021/12/15 05:18:37;;;;;;;;;;;22.80;45.60;;;;;;5091864;28;19912;-62
2021/12/15 05:21:05;;;;;;;;;;;22.80;45.60;;;;;;5083152;28;19912;-62
2021/12/15 05:23:31;;;;;;;;;;;22.80;45.60;;;;;;5081245;28;20360;-62
2021/12/15 05:25:57;;;;;;;;;;;22.90;45.70;;;;;;5104359;28;19979;-62
2021/12/15 05:28:23;;;;;;;;;;;22.90;45.70;;;;;;5092720;28;20376;-63
2021/12/15 05:30:48;;;;;;;;;;;22.90;45.70;;;;;;5091113;28;19908;-63
2021/12/15 05:33:14;;;;;;;;;;;22.90;45.70;;;;;;5081949;28;19909;-63
2021/12/15 05:35:39;;;;;;;;;;;22.90;45.60;;;;;;5070081;28;19940;-62
2021/12/15 05:38:05;;;;;;;;;;;22.90;45.60;;;;;;5072009;28;20660;-62
2021/12/15 05:40:31;;;;;;;;;;;22.90;45.60;;;;;;5071724;28;20006;-62
2021/12/15 05:42:56;;;;;;;;;;;22.90;45.60;;;;;;5087721;28;20305;-62
2021/12/15 05:45:23;;;;;;;;;;;22.90;45.60;;;;;;5090160;28;20003;-63
2021/12/15 05:47:48;;;;;;;;;;;22.90;45.60;;;;;;5092522;28;19908;-62
2021/12/15 05:50:14;;;;;;;;;;;22.90;45.50;;;;;;5091421;28;20111;-62
2021/12/15 05:52:39;;;;;;;;;;;22.90;45.60;;;;;;5090892;28;19908;-62
2021/12/15 05:55:05;;;;;;;;;;;22.90;45.50;;;;;;5091904;28;19912;-62
2021/12/15 05:57:31;;;;;;;;;;;22.90;45.60;;;;;;5092422;28;20356;-62
2021/12/15 05:59:56;;;;;;;;;;;22.90;45.50;;;;;;5081546;28;19919;-63
2021/12/15 06:02:22;;;;;;;;;;;22.90;45.50;;;;;;5074105;28;20384;-62
2021/12/15 06:04:47;;;;;;;;;;;22.90;45.50;;;;;;5070342;28;20364;-63
2021/12/15 06:07:13;;;;;;;;;;;22.90;45.50;;;;;;5073801;28;20015;-63
2021/12/15 06:09:38;;;;;;;;;;;23.00;45.50;;;;;;5087360;28;20260;-62
2021/12/15 06:12:04;;;;;;;;;;;23.00;45.50;;;;;;5084582;28;19916;-63
2021/12/15 06:14:30;;;;;;;;;;;23.00;45.50;;;;;;5085720;28;20015;-63
2021/12/15 06:16:57;;;;;;;;;;;22.90;45.50;;;;;;5075267;28;20292;-63
2021/12/15 06:19:22;;;;;;;;;;;22.90;45.50;;;;;;5071903;28;19972;-63
2021/12/15 06:21:48;;;;;;;;;;;22.90;45.50;;;;;;5069436;28;20023;-63
2021/12/15 06:24:13;;;;;;;;;;;22.90;45.60;;;;;;5073035;28;19939;-62
2021/12/15 06:26:39;;;;;;;;;;;22.90;45.50;;;;;;5072176;28;19913;-63
2021/12/15 06:29:04;;;;;;;;;;;22.90;45.50;;;;;;5071162;28;19923;-62
2021/12/15 06:31:30;;;;;;;;;;;22.90;45.60;;;;;;5071736;28;19920;-62
2021/12/15 06:33:55;;;;;;;;;;;22.90;45.60;;;;;;5070885;28;19916;-62
2021/12/15 06:36:21;;;;;;;;;;;22.90;45.60;;;;;;5069501;28;19930;-63
2021/12/15 06:38:47;;;;;;;;;;;22.90;45.60;;;;;;5073299;28;19916;-62
2021/12/15 06:41:13;;;;;;;;;;;22.90;45.60;;;;;;5073201;28;19931;-62
2021/12/15 06:43:39;;;;;;;;;;;22.90;45.70;;;;;;5077469;28;19915;-62
2021/12/15 06:46:27;;;;;;;;;;;22.90;45.70;;;;;;5073785;28;20004;-62
2021/12/15 06:59:41;;;;;;;;;;;22.90;45.60;;;;;;5082869;28;20275;-62
2021/12/15 07:02:06;;;;;;;;;;;22.90;45.70;;;;;;5074951;28;19916;-62
2021/12/15 07:04:32;;;;;;;;;;;23.00;45.70;;;;;;5072085;28;19912;-62
2021/12/15 07:06:57;;;;;;;;;;;23.00;45.70;;;;;;5063858;28;19916;-62
2021/12/15 07:09:22;;;;;;;;;;;22.90;45.70;;;;;;5070420;28;19916;-64
2021/12/15 07:11:50;;;;;;;;;;;22.90;45.70;;;;;;5064273;28;20331;-62
2021/12/15 07:14:18;;;;;;;;;;;22.90;45.70;;;;;;5075069;28;19978;-62
2021/12/15 07:16:46;;;;;;;;;;;22.90;45.70;;;;;;5075589;28;19962;-62
2021/12/15 07:19:29;;;;;;;;;;;22.90;45.80;;;;;;5077155;28;19920;-62
2021/12/15 07:22:14;;;;;;;;;;;22.90;45.90;;;;;;5072963;28;19924;-62
2021/12/15 07:24:40;;;;;;;;;;;22.90;45.90;;;;;;5089279;28;20384;-62
2021/12/15 07:27:06;;;;;;;;;;;22.90;45.90;;;;;;5072274;28;19959;-62
2021/12/15 07:29:31;;;;;;;;;;;22.90;46.00;;;;;;5073325;28;19917;-62
2021/12/15 07:31:57;;;;;;;;;;;22.80;45.90;;;;;;5092355;28;19970;-62
2021/12/15 07:34:22;;;;;;;;;;;22.90;46.30;;;;;;5092325;28;19912;-62
2021/12/15 07:36:48;;;;;;;;;;;22.90;46.40;;;;;;5110522;28;19940;-62
2021/12/15 07:39:15;;;;;;;;;;;22.90;46.40;;;;;;5076382;28;20022;-62
2021/12/15 07:42:03;;;;;;;;;;;23.00;46.30;;;;;;5079448;28;19917;-61
2021/12/15 07:44:28;;;;;;;;;;;23.00;46.10;;;;;;5077357;28;19955;-62
2021/12/15 07:46:54;;;;;;;;;;;23.10;46.20;;;;;;5082315;28;20411;-61
2021/12/15 07:49:20;;;;;;;;;;;23.10;46.20;;;;;;5083069;28;20505;-61
2021/12/15 07:51:46;;;;;;;;;;;23.10;46.00;;;;;;5077829;28;20372;-62
2021/12/15 07:54:11;;;;;;;;;;;23.10;46.00;;;;;;5082458;28;19912;-62
2021/12/15 07:56:37;;;;;;;;;;;23.10;46.10;;;;;;5082184;28;19920;-62
2021/12/15 07:59:02;;;;;;;;;;;23.20;46.20;;;;;;5080630;28;20418;-62
2021/12/15 08:01:28;;;;;;;;;;;23.10;46.10;;;;;;5078605;28;20406;-62
2021/12/15 08:03:55;;;;;;;;;;;23.20;46.10;;;;;;5073617;28;20002;-62
2021/12/15 08:06:22;;;;;;;;;;;23.20;46.10;;;;;;5095735;28;19912;-62
2021/12/15 08:08:47;;;;;;;;;;;23.20;46.10;;;;;;5092423;28;19958;-62
2021/12/15 08:11:13;;;;;;;;;;;23.30;46.10;;;;;;5071058;28;19920;-63
2021/12/15 08:13:38;;;;;;;;;;;23.30;46.10;;;;;;5087996;28;20010;-62
2021/12/15 08:16:04;;;;;;;;;;;23.30;46.10;;;;;;5093158;28;20360;-63
2021/12/15 08:18:29;;;;;;;;;;;23.30;46.10;;;;;;5070817;28;20288;-62
2021/12/15 08:20:55;;;;;;;;;;;23.30;46.10;;;;;;5083929;28;19920;-62
2021/12/15 08:23:20;;;;;;;;;;;23.30;46.10;;;;;;5085588;28;19913;-62
2021/12/15 08:25:46;;;;;;;;;;;23.30;46.00;;;;;;5074688;28;19913;-62
2021/12/15 08:28:13;;;;;;;;;;;23.30;45.90;;;;;;5083897;28;21366;-62
2021/12/15 08:30:39;;;;;;;;;;;23.30;45.90;;;;;;5089108;28;19999;-63
2021/12/15 08:33:06;;;;;;;;;;;23.30;45.90;;;;;;5085976;28;19917;-62
2021/12/15 08:35:33;;;;;;;;;;;23.30;45.90;;;;;;5075886;28;20359;-62
2021/12/15 08:37:58;;;;;;;;;;;23.30;46.00;;;;;;5090054;28;19912;-63
2021/12/15 08:40:24;;;;;;;;;;;23.30;46.00;;;;;;5090872;28;19912;-62
2021/12/15 08:42:49;;;;;;;;;;;23.30;46.00;;;;;;5077178;28;19998;-63
2021/12/15 08:45:15;;;;;;;;;;;23.30;46.00;;;;;;5086627;28;19943;-63
2021/12/15 08:47:40;;;;;;;;;;;23.30;45.90;;;;;;5078998;28;19931;-63
2021/12/15 08:50:07;;;;;;;;;;;23.30;45.90;;;;;;5084924;28;19959;-62
2021/12/15 08:52:33;;;;;;;;;;;23.30;46.00;;;;;;5081130;28;19912;-62
2021/12/15 08:54:58;;;;;;;;;;;23.30;46.00;;;;;;5089824;28;19927;-62
2021/12/15 08:57:24;;;;;;;;;;;23.30;46.00;;;;;;5076702;28;19912;-62
2021/12/15 08:59:49;;;;;;;;;;;23.30;45.90;;;;;;5072540;28;19923;-61
2021/12/15 09:02:15;;;;;;;;;;;23.30;45.90;;;;;;5079655;28;20443;-62
2021/12/15 09:04:40;;;;;;;;;;;23.40;46.00;;;;;;5085447;28;20384;-63
2021/12/15 09:07:05;;;;;;;;;;;23.40;45.90;;;;;;5088269;28;20254;-63
2021/12/15 09:09:32;;;;;;;;;;;23.40;45.90;;;;;;5085121;28;19950;-62
2021/12/15 09:11:58;;;;;;;;;;;23.40;45.90;;;;;;5074723;28;20020;-63
2021/12/15 09:14:23;;;;;;;;;;;23.40;45.90;;;;;;5078474;28;20455;-63
2021/12/15 09:16:50;;;;;;;;;;;23.40;45.90;;;;;;5089382;28;19912;-62
2021/12/15 09:19:15;;;;;;;;;;;23.40;45.90;;;;;;5085003;28;19952;-63
2021/12/15 09:21:42;;;;;;;;;;;23.40;45.90;;;;;;5088801;28;19963;-63
2021/12/15 09:24:08;;;;;;;;;;;23.40;45.90;;;;;;5089301;28;20015;-63
2021/12/15 09:26:34;;;;;;;;;;;23.40;45.90;;;;;;5087851;28;19916;-63
2021/12/15 09:28:59;;;;;;;;;;;23.40;45.90;;;;;;5083383;28;19930;-63
2021/12/15 09:31:25;;;;;;;;;;;23.40;45.80;;;;;;5084424;28;19927;-63
2021/12/15 09:33:51;;;;;;;;;;;23.40;45.80;;;;;;5088647;28;20347;-63
2021/12/15 09:36:18;;;;;;;;;;;23.40;45.80;;;;;;5078143;28;19915;-63
2021/12/15 09:38:44;;;;;;;;;;;23.40;45.70;;;;;;5081514;28;19973;-63
2021/12/15 09:41:10;;;;;;;;;;;23.40;45.70;;;;;;5073036;28;19920;-63
2021/12/15 09:43:36;;;;;;;;;;;23.40;45.70;;;;;;5086959;28;20401;-62
2021/12/15 10:02:24;;;;;;;;;;;23.50;45.80;;;;;;5078145;28;19953;-63
2021/12/15 10:05:23;;;;;;;;;;;23.50;45.70;;;;;;5088022;28;19942;-63
2021/12/15 10:18:45;;;;;;;;;;;23.50;45.70;;;;;;5082033;28;19939;-63
2021/12/15 10:21:27;;;;;;;;;;;23.50;45.80;;;;;;5100493;28;19920;-62
2021/12/15 10:23:53;;;;;;;;;;;23.50;45.80;;;;;;5083769;28;19923;-62
2021/12/15 10:26:18;;;;;;;;;;;23.40;45.70;;;;;;5091587;28;19908;-63
2021/12/15 10:28:49;;;;;;;;;;;23.40;45.80;;;;;;5085199;28;20433;-63
2021/12/15 10:31:14;;;;;;;;;;;23.40;45.70;;;;;;5089257;28;20383;-62
2021/12/15 10:33:42;;;;;;;;;;;23.50;46.40;;;;;;5091227;28;19916;-63
2021/12/15 10:36:08;;;;;;;;;;;23.40;45.80;;;;;;5088743;28;20396;-62
2021/12/15 10:38:39;;;;;;;;;;;23.40;45.80;;;;;;5080474;28;19950;-63
2021/12/15 10:41:09;;;;;;;;;;;23.40;45.70;;;;;;5069981;28;19928;-63
2021/12/15 10:43:42;;;;;;;;;;;23.40;45.80;;;;;;5076938;28;20076;-62
2021/12/15 10:46:18;;;;;;;;;;;23.40;45.80;;;;;;5066378;28;20011;-62
2021/12/15 10:48:45;;;;;;;;;;;23.50;45.80;;;;;;5070592;28;20029;-62
2021/12/15 10:51:18;;;;;;;;;;;23.40;45.80;;;;;;5079077;28;19919;-62
2021/12/15 10:53:44;;;;;;;;;;;23.40;45.80;;;;;;5087294;28;19923;-64
2021/12/15 10:56:13;;;;;;;;;;;23.50;45.80;;;;;;5098754;28;19920;-63
2021/12/15 10:58:40;;;;;;;;;;;23.50;45.80;;;;;;5093321;28;19918;-62
2021/12/15 11:01:07;;;;;;;;;;;23.50;45.70;;;;;;5087785;28;19916;-62
2021/12/15 11:03:33;;;;;;;;;;;23.50;45.70;;;;;;5076140;28;19909;-63
2021/12/15 11:05:59;;;;;;;;;;;23.50;45.70;;;;;;5085367;28;19913;-63
2021/12/15 11:08:25;;;;;;;;;;;23.50;45.70;;;;;;5093527;28;20390;-62
2021/12/15 11:10:52;;;;;;;;;;;23.50;45.70;;;;;;5079972;28;19982;-63
2021/12/15 11:13:17;;;;;;;;;;;23.50;45.70;;;;;;5088701;28;20302;-63
2021/12/15 11:15:43;;;;;;;;;;;23.50;45.70;;;;;;5088395;28;19917;-63
2021/12/15 11:18:18;;;;;;;;;;;23.50;45.80;;;;;;5092019;28;19923;-63
2021/12/15 11:20:44;;;;;;;;;;;23.50;45.80;;;;;;5085658;28;20026;-62
2021/12/15 11:23:10;;;;;;;;;;;23.50;45.80;;;;;;5089700;28;20392;-62
2021/12/15 11:25:37;;;;;;;;;;;23.50;45.80;;;;;;5089693;28;19912;-63
2021/12/15 11:28:06;;;;;;;;;;;23.50;45.80;;;;;;5093736;28;19956;-62
2021/12/15 11:30:36;;;;;;;;;;;23.50;45.70;;;;;;5085846;28;19908;-62
2021/12/15 11:33:21;;;;;;;;;;;23.50;45.70;;;;;;5090282;28;19989;-62
2021/12/15 11:36:16;;;;;;;;;;;23.50;45.70;;;;;;5091009;28;19922;-63
2021/12/15 11:38:46;;;;;;;;;;;23.50;45.70;;;;;;5078655;28;19912;-63
2021/12/15 11:41:16;;;;;;;;;;;23.50;45.80;;;;;;5080097;28;20030;-63
2021/12/15 11:43:43;;;;;;;;;;;23.50;45.80;;;;;;5078185;28;19916;-62
2021/12/15 11:46:19;;;;;;;;;;;23.50;45.70;;;;;;5088792;28;19912;-63
2021/12/15 11:48:52;;;;;;;;;;;23.50;45.70;;;;;;5092751;28;20432;-63
2021/12/15 11:51:27;;;;;;;;;;;23.50;45.70;;;;;;5081942;28;19921;-63
2021/12/15 11:53:53;;;;;;;;;;;23.50;45.60;;;;;;5078095;28;19935;-62
2021/12/15 11:56:26;;;;;;;;;;;23.50;45.60;;;;;;5090020;28;19916;-63
2021/12/15 11:58:53;;;;;;;;;;;23.50;45.60;;;;;;5091765;28;19937;-62
2021/12/15 12:01:38;;;;;;;;;;;23.50;45.70;;;;;;5086188;28;20464;-63
2021/12/15 12:04:14;;;;;;;;;;;23.50;45.60;;;;;;5088826;28;20292;-62
2021/12/15 12:06:40;;;;;;;;;;;23.50;45.50;;;;;;5082459;28;19909;-62
2021/12/15 12:09:05;;;;;;;;;;;23.60;45.60;;;;;;5091730;28;19918;-63
2021/12/15 12:11:33;;;;;;;;;;;23.60;45.60;;;;;;5076564;28;19946;-63
2021/12/15 12:14:00;;;;;;;;;;;23.50;45.60;;;;;;5076099;28;20404;-63
2021/12/15 12:16:25;;;;;;;;;;;23.50;45.50;;;;;;5092130;28;19920;-63
2021/12/15 12:18:52;;;;;;;;;;;23.50;45.50;;;;;;5070698;28;19913;-62
2021/12/15 12:21:17;;;;;;;;;;;23.50;45.50;;;;;;5070613;28;19921;-63
2021/12/15 12:23:45;;;;;;;;;;;23.50;45.50;;;;;;5092287;28;19912;-62
2021/12/15 12:26:11;;;;;;;;;;;23.60;45.70;;;;;;5090128;28;19912;-63
2021/12/15 12:28:37;;;;;;;;;;;23.50;45.60;;;;;;5091252;28;19912;-63
2021/12/15 12:31:05;;;;;;;;;;;23.50;45.70;;;;;;5085428;28;20019;-62
2021/12/15 12:33:31;;;;;;;;;;;23.50;45.80;;;;;;5078612;28;20423;-63
2021/12/15 12:36:13;;;;;;;;;;;23.50;45.70;;;;;;5090722;28;19912;-63
2021/12/15 12:38:39;;;;;;;;;;;23.50;45.70;;;;;;5091581;28;19915;-63
2021/12/15 12:41:11;;;;;;;;;;;23.60;45.80;;;;;;5092334;28;19920;-62
2021/12/15 12:43:40;;;;;;;;;;;23.60;45.80;;;;;;5089898;28;20261;-62
2021/12/15 12:46:21;;;;;;;;;;;23.60;46.20;;;;;;5080188;28;19916;-62
2021/12/15 12:59:44;;;;;;;;;;;23.50;45.80;;;;;;5083935;28;20015;-61
2021/12/15 13:05:40;;;;;;;;;;;23.50;45.90;;;;;;5073558;28;19994;-62
2021/12/15 13:08:07;;;;;;;;;;;23.50;45.80;;;;;;5076012;28;20007;-62
2021/12/15 13:10:50;;;;;;;;;;;23.50;45.80;;;;;;5083452;28;19916;-62
2021/12/15 13:13:20;;;;;;;;;;;23.50;45.70;;;;;;5071084;28;19920;-62
2021/12/15 13:15:52;;;;;;;;;;;23.60;45.80;;;;;;5090023;28;20102;-62
2021/12/15 13:18:18;;;;;;;;;;;23.60;45.70;;;;;;5081765;28;19924;-63
2021/12/15 13:20:47;;;;;;;;;;;23.60;45.80;;;;;;5090812;28;20277;-63
2021/12/15 13:23:33;;;;;;;;;;;23.60;45.90;;;;;;5082859;28;19963;-62
2021/12/15 13:31:09;;;;;;;;;;;23.60;45.80;;;;;;5092205;28;19973;-63
2021/12/15 13:33:36;;;;;;;;;;;23.60;45.80;;;;;;5074860;28;19965;-61
2021/12/15 13:36:04;;;;;;;;;;;23.60;45.80;;;;;;5090851;28;19912;-61
2021/12/15 13:38:34;;;;;;;;;;;23.60;45.80;;;;;;5080266;28;19923;-62
2021/12/15 13:41:05;;;;;;;;;;;23.60;45.90;;;;;;5089509;28;19965;-62
2021/12/15 13:43:34;;;;;;;;;;;23.60;45.80;;;;;;5095275;28;19912;-63
2021/12/15 13:46:00;;;;;;;;;;;23.60;45.90;;;;;;5090236;28;20025;-62
2021/12/15 13:48:45;;;;;;;;;;;23.60;45.80;;;;;;5090429;28;19999;-63
2021/12/15 13:51:10;;;;;;;;;;;23.60;45.90;;;;;;5077736;28;19927;-63
2021/12/15 13:53:36;;;;;;;;;;;23.60;45.80;;;;;;5071984;28;19916;-63
2021/12/15 13:56:01;;;;;;;;;;;23.60;45.80;;;;;;5078567;28;19916;-63
2021/12/15 13:58:30;;;;;;;;;;;23.60;45.80;;;;;;5090781;28;19916;-62
2021/12/15 14:00:59;;;;;;;;;;;23.60;45.80;;;;;;5079054;28;19970;-63
2021/12/15 14:03:40;;;;;;;;;;;23.60;45.90;;;;;;5101404;28;19952;-63
2021/12/15 14:06:13;;;;;;;;;;;23.60;45.90;;;;;;5086607;28;19915;-63
2021/12/15 14:08:38;;;;;;;;;;;23.60;45.80;;;;;;5092408;28;19947;-62
2021/12/15 14:11:22;;;;;;;;;;;23.60;45.80;;;;;;5096101;28;20382;-62
2021/12/15 14:13:52;;;;;;;;;;;23.60;45.80;;;;;;5077439;28;19947;-62
2021/12/15 14:16:31;;;;;;;;;;;23.60;45.80;;;;;;5082058;28;20037;-63
2021/12/15 14:18:58;;;;;;;;;;;23.60;45.80;;;;;;5088382;28;19920;-63
2021/12/15 14:21:23;;;;;;;;;;;23.70;45.80;;;;;;5073665;28;19923;-63
2021/12/15 14:23:49;;;;;;;;;;;23.70;45.80;;;;;;5083532;28;19912;-63
2021/12/15 14:26:17;;;;;;;;;;;23.70;45.80;;;;;;5093270;28;20120;-63
2021/12/15 14:28:44;;;;;;;;;;;23.70;45.70;;;;;;5087549;28;19923;-62
2021/12/15 14:31:11;;;;;;;;;;;23.70;45.80;;;;;;5090503;28;20403;-63
2021/12/15 14:33:38;;;;;;;;;;;23.70;45.70;;;;;;5081550;28;19916;-63
2021/12/15 14:36:14;;;;;;;;;;;23.70;45.70;;;;;;5090162;28;20288;-63
2021/12/15 14:38:41;;;;;;;;;;;23.70;45.70;;;;;;5088373;28;19912;-62
2021/12/15 14:41:28;;;;;;;;;;;23.70;45.60;;;;;;5093562;28;20343;-62
2021/12/15 14:43:55;;;;;;;;;;;23.70;45.60;;;;;;5100745;28;19961;-62
2021/12/15 14:46:27;;;;;;;;;;;23.70;45.60;;;;;;5088366;28;20352;-61
2021/12/15 14:48:59;;;;;;;;;;;23.70;45.70;;;;;;5086103;28;19916;-62
2021/12/15 14:51:24;;;;;;;;;;;23.70;45.70;;;;;;5075632;28;20257;-63
2021/12/15 14:53:50;;;;;;;;;;;23.70;45.70;;;;;;5091943;28;19927;-63
2021/12/15 14:56:15;;;;;;;;;;;23.70;45.80;;;;;;5099188;28;20484;-62
2021/12/15 14:58:41;;;;;;;;;;;23.70;45.80;;;;;;5095544;28;19908;-62
2021/12/15 15:01:06;;;;;;;;;;;23.60;45.70;;;;;;5085332;28;19920;-63
2021/12/15 15:03:35;;;;;;;;;;;23.70;45.70;;;;;;5089694;28;20586;-63
2021/12/15 15:06:01;;;;;;;;;;;23.60;45.70;;;;;;5081072;28;19923;-62
2021/12/15 15:08:27;;;;;;;;;;;23.70;45.70;;;;;;5079587;28;19916;-62
2021/12/15 15:10:53;;;;;;;;;;;23.70;45.60;;;;;;5088104;28;19923;-63
2021/12/15 15:13:19;;;;;;;;;;;23.70;45.60;;;;;;5085606;28;19920;-62
2021/12/15 15:15:45;;;;;;;;;;;23.70;46.20;;;;;;5089090;28;19920;-62
2021/12/15 15:20:45;;;;;;;;;;;23.70;46.30;;;;;;5091559;28;20017;-63
2021/12/15 15:23:14;;;;;;;;;;;23.70;45.60;;;;;;5086978;28;20272;-63
2021/12/15 15:25:43;;;;;;;;;;;23.70;45.60;;;;;;5082911;28;19927;-62
2021/12/15 15:28:09;;;;;;;;;;;23.70;45.60;;;;;;5085066;28;19916;-63
2021/12/15 15:30:35;;;;;;;;;;;23.70;45.40;;;;;;5074915;28;19965;-62
2021/12/15 15:33:04;;;;;;;;;;;23.70;45.50;;;;;;5065696;28;20307;-63
2021/12/15 15:35:34;;;;;;;;;;;23.70;45.50;;;;;;5073315;28;19959;-62
2021/12/15 15:38:01;;;;;;;;;;;23.70;45.50;;;;;;5079041;28;19912;-63
2021/12/15 15:40:31;;;;;;;;;;;23.70;45.50;;;;;;5081692;28;20368;-62
2021/12/15 15:43:04;;;;;;;;;;;23.70;45.50;;;;;;5091967;28;19916;-63
2021/12/15 15:45:35;;;;;;;;;;;23.70;45.40;;;;;;5076544;28;19919;-63
2021/12/15 15:48:01;;;;;;;;;;;23.70;45.40;;;;;;5082170;28;20368;-63
2021/12/15 15:50:26;;;;;;;;;;;23.70;45.40;;;;;;5076414;28;19916;-62
2021/12/15 15:52:53;;;;;;;;;;;23.70;45.40;;;;;;5085564;28;19957;-62